createdAt,value
2023-06-13T00:00:21.964Z,19.44
2023-06-13T00:01:21.953Z,19.39
2023-06-13T00:02:21.977Z,19.39
2023-06-13T00:03:21.986Z,19.37
2023-06-13T00:04:21.965Z,19.37
2023-06-13T00:05:21.901Z,19.35
2023-06-13T00:06:21.897Z,19.34
2023-06-13T00:07:22.006Z,19.32
2023-06-13T00:08:21.883Z,19.31
2023-06-13T00:09:21.886Z,19.32
2023-06-13T00:10:21.879Z,19.30
2023-06-13T00:11:21.855Z,19.30
2023-06-13T00:12:21.876Z,19.26
2023-06-13T00:13:21.818Z,19.23
2023-06-13T00:14:21.842Z,19.22
2023-06-13T00:15:21.808Z,19.23
2023-06-13T00:16:21.811Z,19.23
2023-06-13T00:17:21.798Z,19.23
2023-06-13T00:18:21.766Z,19.26
2023-06-13T00:19:21.834Z,19.23
2023-06-13T00:20:21.758Z,19.23
2023-06-13T00:21:21.760Z,19.22
2023-06-13T00:22:21.736Z,19.22
2023-06-13T00:23:21.721Z,19.22
2023-06-13T00:24:21.859Z,19.20
2023-06-13T00:25:21.706Z,19.19
2023-06-13T00:26:21.725Z,19.17
2023-06-13T00:27:21.722Z,19.16
2023-06-13T00:28:21.704Z,19.16
2023-06-13T00:29:21.655Z,19.13
2023-06-13T00:30:21.690Z,19.16
2023-06-13T00:31:21.679Z,19.13
2023-06-13T00:32:21.632Z,19.12
2023-06-13T00:33:21.602Z,19.08
2023-06-13T00:34:21.608Z,19.08
2023-06-13T00:35:21.627Z,19.05
2023-06-13T00:36:21.612Z,19.04
2023-06-13T00:37:21.582Z,19.01
2023-06-13T00:38:21.586Z,19.00
2023-06-13T00:39:21.552Z,19.00
2023-06-13T00:40:21.554Z,18.98
2023-06-13T00:41:21.514Z,18.97
2023-06-13T00:42:21.515Z,18.96
2023-06-13T00:43:21.510Z,18.94
2023-06-13T00:44:21.506Z,18.94
2023-06-13T00:45:21.505Z,18.93
2023-06-13T00:46:21.477Z,18.89
2023-06-13T00:47:21.639Z,18.88
2023-06-13T00:48:21.535Z,18.83
2023-06-13T00:49:21.456Z,18.83
2023-06-13T00:50:21.427Z,18.81
2023-06-13T00:51:21.408Z,18.78
2023-06-13T00:52:21.413Z,18.78
2023-06-13T00:53:21.388Z,18.76
2023-06-13T00:54:21.402Z,18.76
2023-06-13T00:55:21.380Z,18.78
2023-06-13T00:56:21.369Z,18.76
2023-06-13T00:57:21.350Z,18.78
2023-06-13T00:58:21.360Z,18.76
2023-06-13T00:59:21.369Z,18.76
2023-06-13T01:00:21.361Z,18.75
2023-06-13T01:01:21.335Z,18.74
2023-06-13T01:02:21.344Z,18.71
2023-06-13T01:03:21.310Z,18.71
2023-06-13T01:04:21.311Z,18.74
2023-06-13T01:05:21.280Z,18.75
2023-06-13T01:06:21.267Z,18.74
2023-06-13T01:07:21.243Z,18.71
2023-06-13T01:08:21.262Z,18.70
2023-06-13T01:09:21.229Z,18.68
2023-06-13T01:10:21.217Z,18.67
2023-06-13T01:11:21.198Z,18.66
2023-06-13T01:12:21.230Z,18.64
2023-06-13T01:13:21.221Z,18.61
2023-06-13T01:14:21.180Z,18.58
2023-06-13T01:15:21.160Z,18.57
2023-06-13T01:16:21.217Z,18.56
2023-06-13T01:17:21.161Z,18.54
2023-06-13T01:18:21.129Z,18.56
2023-06-13T01:19:21.120Z,18.52
2023-06-13T01:20:21.111Z,18.49
2023-06-13T01:21:21.091Z,18.48
2023-06-13T01:22:21.100Z,18.45
2023-06-13T01:23:21.071Z,18.43
2023-06-13T01:24:21.143Z,18.42
2023-06-13T01:25:21.056Z,18.39
2023-06-13T01:26:21.066Z,18.38
2023-06-13T01:27:21.056Z,18.36
2023-06-13T01:28:21.102Z,18.36
2023-06-13T01:29:21.028Z,18.33
2023-06-13T01:30:21.004Z,18.33
2023-06-13T01:31:21.047Z,18.33
2023-06-13T01:32:20.982Z,18.33
2023-06-13T01:33:20.971Z,18.33
2023-06-13T01:34:20.959Z,18.31
2023-06-13T01:35:20.972Z,18.31
2023-06-13T01:36:21.015Z,18.33
2023-06-13T01:37:20.919Z,18.28
2023-06-13T01:38:20.923Z,18.27
2023-06-13T01:39:20.918Z,18.26
2023-06-13T01:40:20.916Z,18.26
2023-06-13T01:41:20.919Z,18.24
2023-06-13T01:42:20.873Z,18.23
2023-06-13T01:43:20.890Z,18.23
2023-06-13T01:44:20.886Z,18.23
2023-06-13T01:45:20.866Z,18.21
2023-06-13T01:46:20.892Z,18.20
2023-06-13T01:47:20.840Z,18.20
2023-06-13T01:48:20.811Z,18.17
2023-06-13T01:49:20.797Z,18.13
2023-06-13T01:50:20.814Z,18.13
2023-06-13T01:51:20.783Z,18.11
2023-06-13T01:52:20.772Z,18.08
2023-06-13T01:53:20.763Z,18.06
2023-06-13T01:54:20.766Z,18.05
2023-06-13T01:55:20.754Z,18.01
2023-06-13T01:56:20.771Z,18.01
2023-06-13T01:57:20.720Z,17.99
2023-06-13T01:58:20.708Z,17.94
2023-06-13T01:59:20.716Z,17.96
2023-06-13T02:00:20.681Z,17.93
2023-06-13T02:01:20.758Z,17.93
2023-06-13T02:02:20.759Z,17.90
2023-06-13T02:03:20.808Z,17.88
2023-06-13T02:04:20.656Z,17.87
2023-06-13T02:05:20.633Z,17.86
2023-06-13T02:06:20.631Z,17.84
2023-06-13T02:07:20.612Z,17.83
2023-06-13T02:08:20.626Z,17.83
2023-06-13T02:09:20.613Z,17.83
2023-06-13T02:10:20.579Z,17.79
2023-06-13T02:11:20.568Z,17.81
2023-06-13T02:12:20.563Z,17.78
2023-06-13T02:13:20.568Z,17.78
2023-06-13T02:14:20.537Z,17.78
2023-06-13T02:15:20.531Z,17.78
2023-06-13T02:16:20.519Z,17.76
2023-06-13T02:17:20.551Z,17.76
2023-06-13T02:18:20.530Z,17.75
2023-06-13T02:19:20.481Z,17.75
2023-06-13T02:20:20.481Z,17.72
2023-06-13T02:21:20.459Z,17.71
2023-06-13T02:22:20.464Z,17.71
2023-06-13T02:23:20.462Z,17.71
2023-06-13T02:24:20.504Z,17.69
2023-06-13T02:25:20.418Z,17.68
2023-06-13T02:26:20.410Z,17.69
2023-06-13T02:27:20.422Z,17.65
2023-06-13T02:28:20.417Z,17.63
2023-06-13T02:29:20.380Z,17.62
2023-06-13T02:30:20.370Z,17.59
2023-06-13T02:31:20.400Z,17.56
2023-06-13T02:32:20.375Z,17.52
2023-06-13T02:33:20.337Z,17.52
2023-06-13T02:34:20.323Z,17.52
2023-06-13T02:35:20.314Z,17.50
2023-06-13T02:36:20.321Z,17.47
2023-06-13T02:37:20.324Z,17.47
2023-06-13T02:38:20.282Z,17.46
2023-06-13T02:39:20.280Z,17.45
2023-06-13T02:40:20.260Z,17.43
2023-06-13T02:41:20.269Z,17.43
2023-06-13T02:42:20.266Z,17.41
2023-06-13T02:43:20.236Z,17.39
2023-06-13T02:44:20.218Z,17.38
2023-06-13T02:45:20.230Z,17.35
2023-06-13T02:46:20.217Z,17.34
2023-06-13T02:47:20.247Z,17.34
2023-06-13T02:48:20.262Z,17.28
2023-06-13T02:49:20.168Z,17.27
2023-06-13T02:50:20.169Z,17.27
2023-06-13T02:51:20.156Z,17.24
2023-06-13T02:52:20.131Z,17.24
2023-06-13T02:53:20.127Z,17.22
2023-06-13T02:54:20.113Z,17.20
2023-06-13T02:55:20.120Z,17.16
2023-06-13T02:56:20.102Z,17.13
2023-06-13T02:57:20.095Z,17.12
2023-06-13T02:58:20.072Z,17.06
2023-06-13T02:59:20.083Z,17.07
2023-06-13T03:00:20.072Z,17.04
2023-06-13T03:01:20.098Z,17.02
2023-06-13T03:02:20.164Z,17.04
2023-06-13T03:03:20.124Z,17.01
2023-06-13T03:04:20.028Z,16.99
2023-06-13T03:05:20.038Z,16.97
2023-06-13T03:06:19.998Z,16.95
2023-06-13T03:07:19.992Z,16.95
2023-06-13T03:08:19.975Z,16.91
2023-06-13T03:09:19.982Z,16.91
2023-06-13T03:10:19.964Z,16.90
2023-06-13T03:11:19.952Z,16.90
2023-06-13T03:12:19.931Z,16.91
2023-06-13T03:13:19.938Z,16.90
2023-06-13T03:14:19.924Z,16.90
2023-06-13T03:15:19.917Z,16.90
2023-06-13T03:16:19.901Z,16.88
2023-06-13T03:17:20.063Z,16.88
2023-06-13T03:18:19.880Z,16.87
2023-06-13T03:19:19.858Z,16.84
2023-06-13T03:20:27.443Z,16.82
2023-06-13T03:21:20.830Z,16.82
2023-06-13T03:22:19.821Z,16.83
2023-06-13T03:23:19.790Z,16.80
2023-06-13T03:24:19.821Z,16.79
2023-06-13T03:25:19.738Z,16.79
2023-06-13T03:26:19.719Z,16.77
2023-06-13T03:27:19.730Z,16.74
2023-06-13T03:28:19.722Z,16.74
2023-06-13T03:29:19.747Z,16.74
2023-06-13T03:30:19.738Z,16.73
2023-06-13T03:31:19.859Z,16.73
2023-06-13T03:32:19.718Z,16.72
2023-06-13T03:33:19.708Z,16.72
2023-06-13T03:34:19.688Z,16.72
2023-06-13T03:35:19.688Z,16.72
2023-06-13T03:36:19.656Z,16.72
2023-06-13T03:37:19.677Z,16.72
2023-06-13T03:38:19.643Z,16.73
2023-06-13T03:39:19.627Z,16.72
2023-06-13T03:40:19.617Z,16.70
2023-06-13T03:41:19.629Z,16.70
2023-06-13T03:42:19.616Z,16.69
2023-06-13T03:43:19.589Z,16.69
2023-06-13T03:44:19.571Z,16.67
2023-06-13T03:45:19.585Z,16.65
2023-06-13T03:46:19.569Z,16.64
2023-06-13T03:47:19.594Z,16.64
2023-06-13T03:48:19.620Z,16.64
2023-06-13T03:49:19.651Z,16.61
2023-06-13T03:50:19.526Z,16.62
2023-06-13T03:51:19.525Z,16.61
2023-06-13T03:52:19.498Z,16.62
2023-06-13T03:53:19.478Z,16.65
2023-06-13T03:54:19.465Z,16.65
2023-06-13T03:55:19.481Z,16.65
2023-06-13T03:56:19.465Z,16.62
2023-06-13T03:57:19.454Z,16.64
2023-06-13T03:58:19.426Z,16.64
2023-06-13T03:59:19.414Z,16.61
2023-06-13T04:00:19.427Z,16.62
2023-06-13T04:01:19.396Z,16.61
2023-06-13T04:02:19.376Z,16.61
2023-06-13T04:03:19.428Z,16.59
2023-06-13T04:04:19.356Z,16.64
2023-06-13T04:05:19.365Z,16.65
2023-06-13T04:06:19.398Z,16.65
2023-06-13T04:07:19.322Z,16.64
2023-06-13T04:08:19.325Z,16.64
2023-06-13T04:09:19.326Z,16.62
2023-06-13T04:10:19.310Z,16.64
2023-06-13T04:11:19.289Z,16.67
2023-06-13T04:12:19.280Z,16.67
2023-06-13T04:13:19.227Z,16.67
2023-06-13T04:14:19.227Z,16.67
2023-06-13T04:15:19.194Z,16.67
2023-06-13T04:16:19.279Z,16.67
2023-06-13T04:17:19.226Z,16.70
2023-06-13T04:18:19.287Z,16.69
2023-06-13T04:19:19.242Z,16.69
2023-06-13T04:20:19.187Z,16.72
2023-06-13T04:21:19.175Z,16.70
2023-06-13T04:22:19.171Z,16.70
2023-06-13T04:23:19.190Z,16.73
2023-06-13T04:24:19.188Z,16.77
2023-06-13T04:25:19.092Z,16.76
2023-06-13T04:26:19.063Z,16.77
2023-06-13T04:27:19.064Z,16.77
2023-06-13T04:28:19.063Z,16.77
2023-06-13T04:29:19.036Z,16.77
2023-06-13T04:30:19.020Z,16.79
2023-06-13T04:31:19.699Z,16.79
2023-06-13T04:32:19.414Z,16.80
2023-06-13T04:33:19.100Z,16.82
2023-06-13T04:34:18.976Z,16.82
2023-06-13T04:35:19.280Z,16.84
2023-06-13T04:36:18.960Z,16.90
2023-06-13T04:37:18.970Z,16.91
2023-06-13T04:38:18.953Z,16.92
2023-06-13T04:39:18.923Z,16.94
2023-06-13T04:40:18.907Z,16.95
2023-06-13T04:41:18.905Z,16.97
2023-06-13T04:42:18.924Z,16.98
2023-06-13T04:43:18.894Z,17.02
2023-06-13T04:44:18.869Z,17.04
2023-06-13T04:45:18.861Z,17.12
2023-06-13T04:46:18.909Z,17.13
2023-06-13T04:47:20.074Z,17.16
2023-06-13T04:48:18.839Z,17.16
2023-06-13T04:49:18.822Z,17.19
2023-06-13T04:50:18.796Z,17.20
2023-06-13T04:51:18.811Z,17.22
2023-06-13T04:52:18.812Z,17.25
2023-06-13T04:53:18.769Z,17.27
2023-06-13T04:54:18.759Z,17.28
2023-06-13T04:55:18.751Z,17.31
2023-06-13T04:56:18.747Z,17.34
2023-06-13T04:57:18.734Z,17.35
2023-06-13T04:58:18.715Z,17.35
2023-06-13T04:59:18.716Z,17.39
2023-06-13T05:00:18.708Z,17.43
2023-06-13T05:01:18.817Z,17.45
2023-06-13T05:02:18.678Z,17.47
2023-06-13T05:03:18.744Z,17.50
2023-06-13T05:04:18.682Z,17.52
2023-06-13T05:05:18.657Z,17.57
2023-06-13T05:06:18.642Z,17.59
2023-06-13T05:07:18.624Z,17.59
2023-06-13T05:08:18.604Z,17.62
2023-06-13T05:09:18.601Z,17.57
2023-06-13T05:10:19.416Z,17.57
2023-06-13T05:11:18.595Z,17.62
2023-06-13T05:12:18.560Z,17.66
2023-06-13T05:13:18.553Z,17.68
2023-06-13T05:14:18.541Z,17.72
2023-06-13T05:15:18.551Z,17.72
2023-06-13T05:16:18.775Z,17.76
2023-06-13T05:17:18.515Z,17.81
2023-06-13T05:18:18.527Z,17.83
2023-06-13T05:19:18.509Z,17.79
2023-06-13T05:20:18.520Z,17.81
2023-06-13T05:21:18.641Z,17.86
2023-06-13T05:22:18.479Z,17.87
2023-06-13T05:23:18.449Z,17.87
2023-06-13T05:24:18.515Z,17.87
2023-06-13T05:25:18.431Z,17.86
2023-06-13T05:26:18.419Z,17.86
2023-06-13T05:27:18.429Z,17.88
2023-06-13T05:28:18.421Z,17.88
2023-06-13T05:29:18.406Z,17.90
2023-06-13T05:30:18.389Z,17.93
2023-06-13T05:31:18.389Z,17.94
2023-06-13T05:32:18.371Z,17.96
2023-06-13T05:33:18.369Z,18.02
2023-06-13T05:34:18.332Z,18.03
2023-06-13T05:35:18.329Z,18.06
2023-06-13T05:36:18.318Z,18.06
2023-06-13T05:37:18.302Z,18.08
2023-06-13T05:38:18.310Z,18.09
2023-06-13T05:39:18.282Z,18.11
2023-06-13T05:40:18.521Z,18.12
2023-06-13T05:41:18.266Z,18.15
2023-06-13T05:42:18.269Z,18.17
2023-06-13T05:43:18.274Z,18.20
2023-06-13T05:44:18.240Z,18.23
2023-06-13T05:45:18.258Z,18.24
2023-06-13T05:46:18.225Z,18.26
2023-06-13T05:47:18.331Z,18.28
2023-06-13T05:48:18.230Z,18.31
2023-06-13T05:49:18.226Z,18.33
2023-06-13T05:50:18.165Z,18.34
2023-06-13T05:51:18.162Z,18.36
2023-06-13T05:52:18.158Z,18.36
2023-06-13T05:53:18.131Z,18.39
2023-06-13T05:54:18.134Z,18.39
2023-06-13T05:55:18.375Z,18.42
2023-06-13T05:56:18.102Z,18.43
2023-06-13T05:57:18.101Z,18.43
2023-06-13T05:58:18.093Z,18.46
2023-06-13T05:59:18.068Z,18.51
2023-06-13T06:00:18.274Z,18.52
2023-06-13T06:01:18.061Z,18.56
2023-06-13T06:02:18.072Z,18.56
2023-06-13T06:03:18.111Z,18.60
2023-06-13T06:04:18.053Z,18.63
2023-06-13T06:05:18.001Z,18.66
2023-06-13T06:06:18.014Z,18.68
2023-06-13T06:07:17.983Z,18.74
2023-06-13T06:08:17.981Z,18.79
2023-06-13T06:09:17.954Z,18.82
2023-06-13T06:10:18.288Z,18.85
2023-06-13T06:11:17.979Z,18.88
2023-06-13T06:12:17.927Z,18.93
2023-06-13T06:13:17.919Z,18.96
2023-06-13T06:14:17.909Z,18.97
2023-06-13T06:15:17.935Z,19.04
2023-06-13T06:16:17.913Z,19.08
2023-06-13T06:17:17.906Z,19.12
2023-06-13T06:18:18.047Z,19.15
2023-06-13T06:19:17.851Z,19.13
2023-06-13T06:20:18.259Z,19.17
2023-06-13T06:21:17.826Z,19.17
2023-06-13T06:22:17.828Z,19.22
2023-06-13T06:23:17.856Z,19.23
2023-06-13T06:24:17.840Z,19.24
2023-06-13T06:25:19.459Z,19.27
2023-06-13T06:26:17.787Z,19.31
2023-06-13T06:27:17.792Z,19.34
2023-06-13T06:28:17.762Z,19.38
2023-06-13T06:29:17.759Z,19.41
2023-06-13T06:30:17.906Z,19.44
2023-06-13T06:31:17.978Z,19.50
2023-06-13T06:32:17.712Z,19.50
2023-06-13T06:33:17.730Z,19.52
2023-06-13T06:34:17.743Z,19.57
2023-06-13T06:35:17.747Z,19.62
2023-06-13T06:36:17.768Z,19.63
2023-06-13T06:37:17.733Z,19.68
2023-06-13T06:38:17.744Z,19.71
2023-06-13T06:39:17.744Z,19.74
2023-06-13T06:40:18.024Z,19.77
2023-06-13T06:41:17.703Z,19.79
2023-06-13T06:42:17.921Z,19.82
2023-06-13T06:43:17.637Z,19.86
2023-06-13T06:44:17.638Z,19.92
2023-06-13T06:45:17.586Z,19.93
2023-06-13T06:46:17.588Z,19.97
2023-06-13T06:47:17.549Z,20.00
2023-06-13T06:48:17.572Z,20.04
2023-06-13T06:49:17.556Z,20.08
2023-06-13T06:50:17.886Z,20.11
2023-06-13T06:51:17.514Z,20.14
2023-06-13T06:52:17.511Z,20.17
2023-06-13T06:53:17.514Z,20.19
2023-06-13T06:54:17.502Z,20.23
2023-06-13T06:55:17.480Z,20.26
2023-06-13T06:56:17.467Z,20.32
2023-06-13T06:57:17.555Z,20.33
2023-06-13T06:58:17.466Z,20.36
2023-06-13T06:59:17.435Z,20.39
2023-06-13T07:00:17.679Z,20.42
2023-06-13T07:01:17.456Z,20.48
2023-06-13T07:02:17.493Z,20.50
2023-06-13T07:03:17.388Z,20.55
2023-06-13T07:04:17.408Z,20.61
2023-06-13T07:05:17.375Z,20.67
2023-06-13T07:06:17.380Z,20.71
2023-06-13T07:07:17.387Z,20.75
2023-06-13T07:08:17.353Z,20.79
2023-06-13T07:09:17.327Z,20.85
2023-06-13T07:10:17.520Z,20.88
2023-06-13T07:11:17.332Z,20.92
2023-06-13T07:12:17.307Z,20.97
2023-06-13T07:13:17.288Z,21.00
2023-06-13T07:14:17.280Z,21.03
2023-06-13T07:15:17.269Z,21.08
2023-06-13T07:16:17.313Z,21.10
2023-06-13T07:17:17.275Z,21.14
2023-06-13T07:18:17.246Z,21.18
2023-06-13T07:19:17.257Z,21.20
2023-06-13T07:20:17.425Z,21.23
2023-06-13T07:21:17.220Z,21.26
2023-06-13T07:22:17.193Z,21.30
2023-06-13T07:23:17.196Z,21.35
2023-06-13T07:24:17.216Z,21.38
2023-06-13T07:25:17.203Z,21.41
2023-06-13T07:26:17.156Z,21.43
2023-06-13T07:27:17.153Z,21.47
2023-06-13T07:28:17.143Z,21.48
2023-06-13T07:29:17.123Z,21.50
2023-06-13T07:30:17.563Z,21.55
2023-06-13T07:31:17.156Z,21.58
2023-06-13T07:32:17.191Z,21.58
2023-06-13T07:33:17.159Z,21.62
2023-06-13T07:34:40.306Z,21.63
2023-06-13T07:35:18.064Z,21.65
2023-06-13T07:36:17.059Z,21.66
2023-06-13T07:37:17.041Z,21.67
2023-06-13T07:38:17.042Z,21.69
2023-06-13T07:39:17.035Z,21.73
2023-06-13T07:40:17.270Z,21.77
2023-06-13T07:41:16.989Z,21.80
2023-06-13T07:42:16.997Z,21.82
2023-06-13T07:43:16.962Z,21.85
2023-06-13T07:44:17.029Z,21.90
2023-06-13T07:45:16.942Z,21.93
2023-06-13T07:46:16.978Z,21.97
2023-06-13T07:47:16.946Z,21.98
2023-06-13T07:48:17.012Z,22.01
2023-06-13T07:49:16.925Z,22.04
2023-06-13T07:50:16.961Z,22.07
2023-06-13T07:51:16.882Z,22.11
2023-06-13T07:52:16.883Z,22.11
2023-06-13T07:53:16.879Z,22.15
2023-06-13T07:54:16.855Z,22.18
2023-06-13T07:55:16.837Z,22.18
2023-06-13T07:56:16.840Z,22.22
2023-06-13T07:57:33.599Z,22.27
2023-06-13T07:58:17.829Z,22.31
2023-06-13T07:59:16.807Z,22.37
2023-06-13T08:00:17.056Z,22.40
2023-06-13T08:01:16.778Z,22.43
2023-06-13T08:02:16.840Z,22.48
2023-06-13T08:03:17.025Z,22.52
2023-06-13T08:04:16.812Z,22.58
2023-06-13T08:05:16.841Z,22.62
2023-06-13T08:06:16.720Z,22.67
2023-06-13T08:07:16.721Z,22.68
2023-06-13T08:08:16.700Z,22.70
2023-06-13T08:09:16.746Z,22.71
2023-06-13T08:10:16.989Z,22.74
2023-06-13T08:11:16.691Z,22.78
2023-06-13T08:12:16.682Z,22.83
2023-06-13T08:13:16.660Z,22.88
2023-06-13T08:14:16.638Z,22.88
2023-06-13T08:15:16.636Z,22.91
2023-06-13T08:16:16.639Z,22.89
2023-06-13T08:17:16.605Z,22.88
2023-06-13T08:18:16.609Z,22.91
2023-06-13T08:19:16.597Z,22.91
2023-06-13T08:20:16.905Z,22.88
2023-06-13T08:21:16.604Z,22.89
2023-06-13T08:22:16.557Z,22.88
2023-06-13T08:23:16.539Z,22.88
2023-06-13T08:24:16.579Z,22.88
2023-06-13T08:25:16.561Z,22.89
2023-06-13T08:26:16.564Z,22.89
2023-06-13T08:27:16.500Z,22.93
2023-06-13T08:28:16.495Z,22.96
2023-06-13T08:29:18.231Z,22.98
2023-06-13T08:30:16.660Z,22.98
2023-06-13T08:31:43.836Z,22.98
2023-06-13T08:32:17.466Z,23.04
2023-06-13T08:33:16.575Z,23.06
2023-06-13T08:34:17.104Z,23.11
2023-06-13T08:35:16.616Z,23.15
2023-06-13T08:36:27.601Z,23.15
2023-06-13T08:37:17.395Z,23.21
2023-06-13T08:38:16.397Z,23.26
2023-06-13T08:39:16.392Z,23.36
2023-06-13T08:40:16.386Z,23.41
2023-06-13T08:41:16.359Z,23.45
2023-06-13T08:42:16.357Z,23.48
2023-06-13T08:43:16.333Z,23.49
2023-06-13T08:44:16.369Z,23.52
2023-06-13T08:45:16.657Z,23.56
2023-06-13T08:46:16.408Z,23.64
2023-06-13T08:47:35.434Z,23.71
2023-06-13T08:48:17.310Z,23.78
2023-06-13T08:49:16.302Z,23.85
2023-06-13T08:50:16.509Z,23.89
2023-06-13T08:51:16.302Z,23.98
2023-06-13T08:52:16.246Z,24.04
2023-06-13T08:53:16.244Z,24.10
2023-06-13T08:54:16.247Z,24.15
2023-06-13T08:56:16.195Z,24.31
2023-06-13T08:57:16.205Z,24.40
2023-06-13T08:58:16.209Z,24.45
2023-06-13T08:59:16.163Z,24.53
2023-06-13T09:00:16.173Z,24.62
2023-06-13T09:01:16.250Z,24.70
2023-06-13T09:02:16.141Z,24.75
2023-06-13T09:03:16.240Z,24.79
2023-06-13T09:04:16.380Z,24.82
2023-06-13T09:05:16.268Z,24.86
2023-06-13T09:06:16.097Z,24.93
2023-06-13T09:07:16.119Z,24.97
2023-06-13T09:08:28.657Z,25.03
2023-06-13T09:09:17.063Z,25.11
2023-06-13T09:10:16.657Z,25.18
2023-06-13T09:11:18.964Z,25.22
2023-06-13T09:12:16.139Z,25.28
2023-06-13T09:13:16.020Z,25.36
2023-06-13T09:14:16.014Z,25.45
2023-06-13T09:15:16.214Z,25.49
2023-06-13T09:16:16.066Z,25.56
2023-06-13T09:17:16.062Z,25.58
2023-06-13T09:18:16.012Z,25.58
2023-06-13T09:19:15.965Z,25.55
2023-06-13T09:20:16.212Z,25.52
2023-06-13T09:21:16.489Z,25.48
2023-06-13T09:22:15.949Z,25.45
2023-06-13T09:23:15.918Z,25.46
2023-06-13T09:24:15.964Z,25.49
2023-06-13T09:25:15.900Z,25.52
2023-06-13T09:26:15.910Z,25.55
2023-06-13T09:27:15.867Z,25.59
2023-06-13T09:28:15.868Z,25.66
2023-06-13T09:29:27.340Z,25.68
2023-06-13T09:30:17.435Z,25.71
2023-06-13T09:31:15.883Z,25.74
2023-06-13T09:32:15.823Z,25.73
2023-06-13T09:33:15.810Z,25.74
2023-06-13T09:34:15.808Z,25.81
2023-06-13T09:35:27.665Z,25.83
2023-06-13T09:36:16.829Z,25.83
2023-06-13T09:37:16.504Z,25.85
2023-06-13T09:38:15.764Z,25.90
2023-06-13T09:39:15.747Z,25.92
2023-06-13T09:40:15.758Z,25.93
2023-06-13T09:41:15.761Z,25.98
2023-06-13T09:42:15.722Z,26.03
2023-06-13T09:43:15.707Z,26.08
2023-06-13T09:44:15.725Z,26.15
2023-06-13T09:45:15.708Z,26.21
2023-06-13T09:46:15.734Z,26.27
2023-06-13T09:47:15.681Z,26.33
2023-06-13T09:48:15.666Z,26.38
2023-06-13T09:49:15.674Z,26.43
2023-06-13T09:50:15.660Z,26.51
2023-06-13T09:51:15.647Z,26.57
2023-06-13T09:52:15.610Z,26.63
2023-06-13T09:53:15.612Z,26.68
2023-06-13T09:54:15.619Z,26.68
2023-06-13T09:55:15.793Z,26.71
2023-06-13T09:56:15.571Z,26.71
2023-06-13T09:57:15.559Z,26.71
2023-06-13T09:58:31.775Z,26.78
2023-06-13T09:59:16.548Z,26.82
2023-06-13T10:00:15.651Z,26.79
2023-06-13T10:01:15.534Z,26.76
2023-06-13T10:02:15.555Z,26.75
2023-06-13T10:03:21.129Z,26.68
2023-06-13T10:04:16.490Z,26.65
2023-06-13T10:05:15.480Z,26.65
2023-06-13T10:06:15.470Z,26.61
2023-06-13T10:07:15.455Z,26.60
2023-06-13T10:08:15.459Z,26.56
2023-06-13T10:09:15.450Z,26.53
2023-06-13T10:10:15.748Z,26.46
2023-06-13T10:11:15.417Z,26.43
2023-06-13T10:12:15.420Z,26.39
2023-06-13T10:13:15.410Z,26.34
2023-06-13T10:14:15.451Z,26.33
2023-06-13T10:15:15.675Z,26.30
2023-06-13T10:16:15.415Z,26.28
2023-06-13T10:17:15.383Z,26.24
2023-06-13T10:18:15.377Z,26.21
2023-06-13T10:19:15.329Z,26.16
2023-06-13T10:20:15.565Z,26.12
2023-06-13T10:21:15.310Z,26.01
2023-06-13T10:22:15.314Z,25.96
2023-06-13T10:23:15.287Z,25.93
2023-06-13T10:24:15.340Z,25.89
2023-06-13T10:25:15.272Z,25.86
2023-06-13T10:26:15.281Z,25.88
2023-06-13T10:27:15.288Z,25.86
2023-06-13T10:28:15.246Z,25.88
2023-06-13T10:29:15.244Z,25.88
2023-06-13T10:30:15.478Z,25.82
2023-06-13T10:31:15.290Z,25.78
2023-06-13T10:32:15.228Z,25.77
2023-06-13T10:33:15.195Z,25.73
2023-06-13T10:34:15.175Z,25.68
2023-06-13T10:35:15.173Z,25.64
2023-06-13T10:36:15.197Z,25.58
2023-06-13T10:37:15.234Z,25.56
2023-06-13T10:38:15.142Z,25.55
2023-06-13T10:39:15.142Z,25.55
2023-06-13T10:40:15.356Z,25.59
2023-06-13T10:41:15.123Z,25.59
2023-06-13T10:42:15.094Z,25.64
2023-06-13T10:43:15.095Z,25.66
2023-06-13T10:44:15.071Z,25.64
2023-06-13T10:45:15.095Z,25.66
2023-06-13T10:46:15.076Z,25.68
2023-06-13T10:47:15.050Z,25.70
2023-06-13T10:48:15.047Z,25.71
2023-06-13T10:49:15.027Z,25.75
2023-06-13T10:50:15.365Z,25.78
2023-06-13T10:51:15.016Z,25.82
2023-06-13T10:52:15.004Z,25.85
2023-06-13T10:53:14.992Z,25.89
2023-06-13T10:54:14.988Z,25.90
2023-06-13T10:55:14.990Z,25.93
2023-06-13T10:56:14.983Z,25.95
2023-06-13T10:57:14.952Z,25.96
2023-06-13T10:58:14.929Z,25.98
2023-06-13T10:59:14.945Z,26.00
2023-06-13T11:00:15.926Z,26.01
2023-06-13T11:01:14.925Z,26.03
2023-06-13T11:02:14.887Z,26.05
2023-06-13T11:03:14.984Z,26.08
2023-06-13T11:04:14.933Z,26.11
2023-06-13T11:05:15.217Z,26.16
2023-06-13T11:06:14.860Z,26.19
2023-06-13T11:07:14.853Z,26.20
2023-06-13T11:08:14.843Z,26.21
2023-06-13T11:09:14.819Z,26.26
2023-06-13T11:10:14.849Z,26.30
2023-06-13T11:11:14.798Z,26.33
2023-06-13T11:12:15.455Z,26.39
2023-06-13T11:13:14.792Z,26.43
2023-06-13T11:14:14.771Z,26.45
2023-06-13T11:15:14.777Z,26.45
2023-06-13T11:16:14.737Z,26.42
2023-06-13T11:17:14.806Z,26.39
2023-06-13T11:18:14.765Z,26.36
2023-06-13T11:19:14.720Z,26.36
2023-06-13T11:20:14.700Z,26.34
2023-06-13T11:21:14.691Z,26.36
2023-06-13T11:22:14.739Z,26.38
2023-06-13T11:23:14.679Z,26.39
2023-06-13T11:24:14.884Z,26.41
2023-06-13T11:25:14.662Z,26.39
2023-06-13T11:26:14.637Z,26.42
2023-06-13T11:27:14.661Z,26.45
2023-06-13T11:28:14.611Z,26.46
2023-06-13T11:29:14.604Z,26.46
2023-06-13T11:30:14.888Z,26.45
2023-06-13T11:31:14.649Z,26.48
2023-06-13T11:32:14.594Z,26.49
2023-06-13T11:33:14.576Z,26.53
2023-06-13T11:34:14.574Z,26.56
2023-06-13T11:35:14.544Z,26.60
2023-06-13T11:36:14.622Z,26.63
2023-06-13T11:37:14.576Z,26.64
2023-06-13T11:38:14.520Z,26.67
2023-06-13T11:39:14.503Z,26.68
2023-06-13T11:40:19.369Z,26.71
2023-06-13T11:41:15.504Z,26.73
2023-06-13T11:42:14.570Z,26.78
2023-06-13T11:43:14.476Z,26.80
2023-06-13T11:44:14.445Z,26.83
2023-06-13T11:45:14.470Z,26.88
2023-06-13T11:46:14.448Z,26.89
2023-06-13T11:47:14.476Z,26.89
2023-06-13T11:48:14.486Z,26.90
2023-06-13T11:49:14.418Z,26.90
2023-06-13T11:50:14.826Z,26.94
2023-06-13T11:51:14.405Z,26.90
2023-06-13T11:52:14.368Z,26.94
2023-06-13T11:53:14.361Z,26.94
2023-06-13T11:54:14.354Z,26.93
2023-06-13T11:55:14.353Z,26.89
2023-06-13T11:56:14.320Z,26.89
2023-06-13T11:57:14.342Z,26.88
2023-06-13T11:58:14.302Z,26.88
2023-06-13T11:59:14.329Z,26.90
2023-06-13T12:00:14.383Z,26.93
2023-06-13T12:01:14.310Z,26.89
2023-06-13T12:02:14.382Z,26.89
2023-06-13T12:03:14.405Z,26.93
2023-06-13T12:04:14.322Z,26.90
2023-06-13T12:05:14.329Z,26.90
2023-06-13T12:06:14.229Z,26.93
2023-06-13T12:07:14.221Z,26.95
2023-06-13T12:08:14.199Z,27.00
2023-06-13T12:09:14.205Z,27.00
2023-06-13T12:10:14.282Z,27.03
2023-06-13T12:11:24.525Z,27.04
2023-06-13T12:12:15.163Z,27.01
2023-06-13T12:13:14.178Z,27.00
2023-06-13T12:14:14.184Z,27.00
2023-06-13T12:15:14.146Z,27.00
2023-06-13T12:16:14.132Z,26.95
2023-06-13T12:17:14.229Z,26.95
2023-06-13T12:18:14.196Z,26.97
2023-06-13T12:19:14.094Z,26.98
2023-06-13T12:20:14.085Z,26.98
2023-06-13T12:21:14.088Z,27.00
2023-06-13T12:22:14.157Z,27.03
2023-06-13T12:23:14.073Z,27.03
2023-06-13T12:24:14.105Z,27.04
2023-06-13T12:25:14.041Z,27.05
2023-06-13T12:26:14.014Z,27.05
2023-06-13T12:27:14.029Z,27.07
2023-06-13T12:28:14.006Z,27.10
2023-06-13T12:29:13.992Z,27.12
2023-06-13T12:30:13.983Z,27.13
2023-06-13T12:31:13.994Z,27.16
2023-06-13T12:32:13.971Z,27.16
2023-06-13T12:33:14.072Z,27.16
2023-06-13T12:34:13.919Z,27.15
2023-06-13T12:35:13.960Z,27.12
2023-06-13T12:36:13.903Z,27.13
2023-06-13T12:37:13.916Z,27.13
2023-06-13T12:38:13.887Z,27.15
2023-06-13T12:39:13.883Z,27.16
2023-06-13T12:40:14.324Z,27.17
2023-06-13T12:41:13.883Z,27.20
2023-06-13T12:42:13.867Z,27.23
2023-06-13T12:43:13.836Z,27.23
2023-06-13T12:44:13.834Z,27.26
2023-06-13T12:45:14.293Z,27.25
2023-06-13T12:46:13.831Z,27.27
2023-06-13T12:47:13.876Z,27.26
2023-06-13T12:48:13.814Z,27.20
2023-06-13T12:49:13.777Z,27.22
2023-06-13T12:50:14.074Z,27.23
2023-06-13T12:51:13.776Z,27.26
2023-06-13T12:52:13.744Z,27.26
2023-06-13T12:53:13.733Z,27.26